Time;durP1;ratioP1;P1;durP2;ratioP2;P2;SDS_P1;SDS_P2;PMS_P1;PMS_P2;Temp;Humidity;BMP_temperature;BMP_pressure;BME280_temperature;BME280_humidity;BME280_pressure;Samples;Min_cycle;Max_cycle;Signal;HPM_P1;HPM_P2
2021/12/20 05:01:43;;;;;;;39.22;19.92;;;3.50;99.90;;;;;;5376402;22;91208;-73
2021/12/20 05:04:09;;;;;;;39.08;19.73;;;3.50;99.90;;;;;;4997010;28;90509;-74
2021/12/20 05:06:35;;;;;;;42.25;20.23;;;3.50;99.90;;;;;;4997564;28;89269;-75
2021/12/20 05:09:03;;;;;;;42.30;20.25;;;3.50;99.90;;;;;;4979560;28;89287;-74
2021/12/20 05:11:30;;;;;;;40.63;20.45;;;3.40;99.90;;;;;;4986384;28;89544;-74
2021/12/20 05:13:56;;;;;;;42.53;19.35;;;3.50;99.90;;;;;;4977145;28;89929;-74
2021/12/20 05:16:21;;;;;;;41.58;20.30;;;3.40;99.90;;;;;;4978375;28;89957;-74
2021/12/20 05:18:47;;;;;;;46.08;22.23;;;3.50;99.90;;;;;;4977348;28;89493;-74
2021/12/20 05:21:13;;;;;;;45.75;21.65;;;3.40;99.90;;;;;;4959045;28;92364;-74
2021/12/20 05:23:38;;;;;;;45.60;22.13;;;3.40;99.90;;;;;;4976734;28;91664;-74
2021/12/20 05:26:04;;;;;;;41.83;19.90;;;3.40;99.90;;;;;;4977400;28;90755;-74
2021/12/20 05:28:30;;;;;;;43.78;20.63;;;3.40;99.90;;;;;;4959186;28;89306;-74
2021/12/20 05:30:55;;;;;;;42.67;21.00;;;3.40;99.90;;;;;;4977322;28;89347;-74
2021/12/20 05:33:22;;;;;;;46.83;20.90;;;3.40;99.90;;;;;;4977286;28;89407;-74
2021/12/20 05:35:48;;;;;;;46.28;21.92;;;3.40;99.90;;;;;;4977405;28;89351;-74
2021/12/20 05:38:14;;;;;;;43.17;20.88;;;3.40;99.90;;;;;;4977451;28;89207;-74
2021/12/20 05:40:39;;;;;;;45.47;20.83;;;3.40;99.90;;;;;;4959428;28;91307;-74
2021/12/20 05:43:05;;;;;;;45.47;20.90;;;3.50;99.90;;;;;;4977586;28;89452;-74
2021/12/20 05:45:31;;;;;;;41.53;20.98;;;3.40;99.90;;;;;;4977090;28;89156;-74
2021/12/20 05:47:56;;;;;;;44.15;21.02;;;3.40;99.90;;;;;;4958794;28;90540;-74
2021/12/20 05:50:23;;;;;;;43.47;20.85;;;3.50;99.90;;;;;;4976676;28;90252;-74
2021/12/20 05:52:50;;;;;;;48.10;21.20;;;3.50;99.90;;;;;;4959610;28;91724;-74
2021/12/20 05:55:16;;;;;;;44.92;21.05;;;3.50;99.90;;;;;;4977012;28;93927;-74
2021/12/20 05:57:42;;;;;;;44.00;21.40;;;3.50;99.90;;;;;;4977877;28;89299;-73
2021/12/20 06:00:15;;;;;;;44.50;21.55;;;3.60;99.90;;;;;;4977327;28;90274;-74
2021/12/20 06:02:42;;;;;;;47.83;22.05;;;3.60;99.90;;;;;;4977309;28;89306;-74
2021/12/20 06:05:08;;;;;;;46.03;21.15;;;3.60;99.90;;;;;;4960422;28;92805;-75
2021/12/20 06:07:38;;;;;;;48.22;21.90;;;3.70;99.90;;;;;;4980398;28;89506;-75
2021/12/20 06:10:05;;;;;;;47.90;21.80;;;3.60;99.90;;;;;;4962248;28;92490;-75
2021/12/20 06:12:30;;;;;;;47.75;22.33;;;3.60;99.90;;;;;;4979530;28;90302;-75
2021/12/20 06:14:56;;;;;;;46.78;21.23;;;3.60;99.90;;;;;;4962202;28;93455;-75
2021/12/20 06:17:22;;;;;;;45.17;21.75;;;3.70;99.90;;;;;;4980435;28;89337;-75
2021/12/20 06:19:47;;;;;;;43.67;20.40;;;3.70;99.90;;;;;;4980181;28;89871;-75
2021/12/20 06:22:13;;;;;;;52.40;23.90;;;3.70;99.90;;;;;;4979984;28;90016;-75
2021/12/20 06:24:39;;;;;;;45.33;21.02;;;3.70;99.90;;;;;;4980419;28;89254;-75
2021/12/20 06:27:04;;;;;;;48.03;22.58;;;3.70;99.90;;;;;;4980326;28;89277;-75
2021/12/20 06:29:30;;;;;;;47.38;21.88;;;3.70;99.90;;;;;;4979925;28;88925;-75
2021/12/20 06:31:55;;;;;;;48.97;22.75;;;3.70;99.90;;;;;;4978001;28;89324;-75
2021/12/20 06:34:21;;;;;;;46.85;22.50;;;3.70;99.90;;;;;;4976933;28;89801;-75
2021/12/20 06:36:47;;;;;;;49.92;22.95;;;3.70;99.90;;;;;;4974254;28;90536;-74
2021/12/20 06:39:13;;;;;;;48.05;22.17;;;3.70;99.90;;;;;;4979133;28;89427;-78
2021/12/20 06:41:38;;;;;;;46.70;22.35;;;3.70;99.90;;;;;;4978919;28;89951;-75
2021/12/20 06:44:05;;;;;;;46.15;21.85;;;3.60;99.90;;;;;;4979538;28;89724;-75
2021/12/20 06:46:33;;;;;;;42.42;20.63;;;3.60;99.90;;;;;;4979741;28;89254;-75
2021/12/20 06:48:59;;;;;;;46.83;22.63;;;3.60;99.90;;;;;;4979505;28;94267;-75
2021/12/20 06:51:25;;;;;;;47.25;22.15;;;3.60;99.90;;;;;;4961766;28;91905;-74
2021/12/20 06:53:51;;;;;;;49.58;22.27;;;3.60;99.90;;;;;;4980021;28;89088;-75
2021/12/20 06:56:17;;;;;;;47.88;22.08;;;3.70;99.90;;;;;;4979835;28;89143;-75
2021/12/20 06:58:42;;;;;;;47.55;22.15;;;3.60;99.90;;;;;;4979498;28;89548;-75
2021/12/20 07:01:08;;;;;;;47.50;21.35;;;3.60;99.90;;;;;;4978561;28;90861;-75
2021/12/20 07:03:33;;;;;;;46.20;21.48;;;3.70;99.90;;;;;;4978840;28;89721;-75
2021/12/20 07:05:59;;;;;;;46.28;22.75;;;3.60;99.90;;;;;;4979809;28;89233;-75
2021/12/20 07:08:24;;;;;;;43.65;21.55;;;3.60;99.90;;;;;;4979100;28;89317;-75
2021/12/20 07:10:50;;;;;;;48.03;21.30;;;3.60;99.90;;;;;;4978827;28;90650;-75
2021/12/20 07:13:15;;;;;;;41.28;20.52;;;3.70;99.90;;;;;;4979042;28;90045;-75
2021/12/20 07:15:41;;;;;;;48.45;22.17;;;3.60;99.90;;;;;;4978371;28;89295;-75
2021/12/20 07:18:07;;;;;;;46.55;21.52;;;3.60;99.90;;;;;;4979010;28;90130;-75
2021/12/20 07:20:33;;;;;;;46.55;21.98;;;3.60;99.90;;;;;;4978966;28;90015;-75
2021/12/20 07:22:59;;;;;;;44.95;21.67;;;3.60;99.90;;;;;;4978876;28;89159;-75
2021/12/20 07:25:25;;;;;;;44.15;20.88;;;3.60;99.90;;;;;;4978423;28;90238;-75
2021/12/20 07:27:52;;;;;;;44.53;21.73;;;3.60;99.90;;;;;;4978826;28;89242;-75
2021/12/20 07:30:19;;;;;;;46.60;21.40;;;3.70;99.90;;;;;;4978392;28;90778;-75
2021/12/20 07:32:45;;;;;;;47.35;22.25;;;3.80;99.90;;;;;;4978796;28;89707;-75
2021/12/20 07:35:12;;;;;;;46.78;22.23;;;3.80;99.90;;;;;;4978686;28;89272;-75
2021/12/20 07:37:37;;;;;;;46.47;21.80;;;3.80;99.90;;;;;;4978696;28;89874;-75
2021/12/20 07:40:05;;;;;;;46.25;21.90;;;3.70;99.90;;;;;;4978886;28;89995;-75
2021/12/20 07:42:30;;;;;;;46.05;21.00;;;3.70;99.90;;;;;;4979558;28;90079;-75
2021/12/20 07:44:56;;;;;;;42.40;20.83;;;3.80;99.90;;;;;;4980454;28;89409;-75
2021/12/20 07:47:22;;;;;;;46.08;21.42;;;3.80;99.90;;;;;;4979842;28;89879;-75
2021/12/20 07:49:47;;;;;;;45.60;21.35;;;3.90;99.90;;;;;;4978029;28;90973;-75
2021/12/20 07:52:13;;;;;;;44.22;20.83;;;3.80;99.90;;;;;;4978314;28;89715;-75
2021/12/20 07:54:38;;;;;;;44.90;21.83;;;3.90;99.90;;;;;;4978435;28;89373;-75
2021/12/20 07:57:04;;;;;;;42.17;21.20;;;3.90;99.90;;;;;;4978782;28;89667;-78
2021/12/20 07:59:30;;;;;;;44.20;21.70;;;4.00;99.90;;;;;;4978336;28;90428;-75
2021/12/20 08:01:56;;;;;;;46.47;22.35;;;4.00;99.90;;;;;;4978079;28;89705;-77
2021/12/20 08:04:22;;;;;;;45.85;20.85;;;4.00;99.90;;;;;;4978348;28;89162;-74
2021/12/20 08:06:48;;;;;;;41.80;21.20;;;4.10;99.90;;;;;;4978756;28;88907;-74
2021/12/20 08:09:14;;;;;;;43.38;20.83;;;4.10;99.90;;;;;;4978253;28;89573;-74
2021/12/20 08:11:41;;;;;;;47.97;21.58;;;4.20;99.90;;;;;;4970837;28;89517;-74
2021/12/20 08:14:07;;;;;;;43.70;21.65;;;4.20;99.90;;;;;;4977061;28;90519;-74
2021/12/20 08:16:32;;;;;;;40.97;19.90;;;4.30;99.90;;;;;;4976319;28;89317;-75
2021/12/20 08:18:58;;;;;;;43.85;21.73;;;4.20;99.90;;;;;;4977019;28;90066;-74
2021/12/20 08:21:23;;;;;;;42.90;20.90;;;4.20;99.90;;;;;;4976731;28;89682;-74
2021/12/20 08:23:50;;;;;;;43.45;20.67;;;4.30;99.90;;;;;;4976683;28;89523;-74
2021/12/20 08:26:16;;;;;;;45.90;22.77;;;4.30;99.90;;;;;;4976592;28;90429;-74
2021/12/20 08:28:42;;;;;;;50.35;22.92;;;4.40;99.90;;;;;;4975671;28;89635;-73
2021/12/20 08:31:09;;;;;;;52.03;23.45;;;4.40;99.90;;;;;;4958847;28;90838;-74
2021/12/20 08:33:36;;;;;;;51.03;23.40;;;4.40;99.90;;;;;;4976527;28;89568;-75
2021/12/20 08:36:10;;;;;;;46.97;22.35;;;4.40;99.90;;;;;;4977576;28;89833;-75
2021/12/20 08:38:36;;;;;;;45.28;22.40;;;4.50;99.90;;;;;;4977444;28;90173;-75
2021/12/20 08:41:02;;;;;;;49.70;23.73;;;4.50;99.90;;;;;;4977772;28;89569;-74
2021/12/20 08:43:29;;;;;;;49.20;21.70;;;4.50;99.90;;;;;;4959511;28;89277;-75
2021/12/20 08:45:54;;;;;;;48.85;22.55;;;4.50;99.90;;;;;;4977789;28;89447;-74
2021/12/20 08:48:20;;;;;;;49.75;23.25;;;4.60;99.90;;;;;;4978054;28;89342;-75
2021/12/20 08:50:47;;;;;;;44.33;22.00;;;4.60;99.90;;;;;;4960003;28;91858;-75
2021/12/20 08:53:13;;;;;;;40.30;20.27;;;4.60;99.90;;;;;;4978467;28;89243;-75
2021/12/20 08:55:39;;;;;;;43.10;21.02;;;4.70;99.90;;;;;;4960788;28;91444;-75
2021/12/20 08:58:06;;;;;;;42.38;20.00;;;4.70;99.90;;;;;;4977227;28;90126;-74
2021/12/20 09:00:36;;;;;;;43.92;20.92;;;4.70;99.90;;;;;;4959441;28;92851;-75
2021/12/20 09:03:03;;;;;;;43.00;20.17;;;4.70;99.90;;;;;;4977328;28;90176;-75
2021/12/20 09:05:31;;;;;;;45.63;19.80;;;4.70;99.90;;;;;;4959394;28;92963;-75
2021/12/20 09:08:00;;;;;;;41.35;20.08;;;4.70;99.90;;;;;;4960041;28;90262;-75
2021/12/20 09:10:27;;;;;;;43.17;20.65;;;4.70;99.90;;;;;;4959222;28;91936;-75
2021/12/20 09:12:53;;;;;;;43.78;20.98;;;4.80;99.90;;;;;;4977173;28;89286;-75
2021/12/20 09:15:19;;;;;;;41.25;20.52;;;4.70;99.90;;;;;;4959313;28;92998;-75
2021/12/20 09:17:47;;;;;;;43.92;21.08;;;4.80;99.90;;;;;;4959661;28;92661;-75
2021/12/20 09:20:13;;;;;;;40.17;20.27;;;4.70;99.90;;;;;;4977695;28;89131;-75
2021/12/20 09:22:49;;;;;;;40.00;19.20;;;4.70;99.90;;;;;;4977539;28;89324;-75
2021/12/20 09:25:20;;;;;;;39.45;18.10;;;4.70;99.90;;;;;;4959324;28;91914;-76
2021/12/20 09:27:45;;;;;;;40.20;18.27;;;4.70;99.90;;;;;;4976632;28;92271;-75
2021/12/20 09:30:11;;;;;;;40.25;18.92;;;4.80;99.90;;;;;;4976922;28;91109;-79
2021/12/20 09:32:37;;;;;;;39.65;18.30;;;4.80;99.90;;;;;;4977757;28;89318;-75
2021/12/20 09:35:03;;;;;;;40.50;18.80;;;4.70;99.90;;;;;;4977129;28;89682;-74
2021/12/20 09:37:29;;;;;;;37.42;17.95;;;4.70;99.90;;;;;;4976685;28;90618;-74
2021/12/20 09:39:55;;;;;;;39.90;18.80;;;4.90;99.90;;;;;;4976163;28;89528;-74
2021/12/20 09:42:22;;;;;;;40.97;18.73;;;5.00;99.90;;;;;;4977694;28;89567;-75
2021/12/20 09:44:48;;;;;;;37.70;18.75;;;5.00;99.90;;;;;;4977099;28;89000;-75
2021/12/20 09:47:15;;;;;;;44.13;18.83;;;5.20;99.90;;;;;;4977194;28;90127;-75
2021/12/20 09:49:41;;;;;;;38.08;16.92;;;5.30;99.90;;;;;;4976568;28;90897;-75
2021/12/20 09:52:07;;;;;;;35.13;16.80;;;5.50;99.90;;;;;;4976261;28;90545;-76
2021/12/20 09:54:33;;;;;;;31.58;16.40;;;5.50;99.90;;;;;;4976679;28;89277;-75
2021/12/20 09:57:02;;;;;;;35.03;17.17;;;5.50;99.90;;;;;;4959044;28;91638;-74
2021/12/20 09:59:29;;;;;;;36.00;17.90;;;5.60;99.90;;;;;;4976795;28;89229;-73
2021/12/20 10:01:57;;;;;;;33.40;16.10;;;5.80;99.90;;;;;;4976865;28;89621;-74
2021/12/20 10:04:23;;;;;;;35.65;16.10;;;6.10;99.90;;;;;;4976661;28;90228;-73
2021/12/20 10:07:01;;;;;;;31.73;15.77;;;6.20;99.90;;;;;;4976579;28;89271;-74
2021/12/20 10:09:31;;;;;;;30.08;14.77;;;6.20;99.90;;;;;;4977183;28;89002;-73
2021/12/20 10:12:15;;;;;;;30.48;14.77;;;6.20;99.90;;;;;;4977030;28;89714;-73
2021/12/20 10:14:54;;;;;;;31.10;14.48;;;5.90;99.90;;;;;;4976918;28;89211;-74
2021/12/20 10:17:20;;;;;;;29.75;14.50;;;5.70;99.90;;;;;;4976191;28;91433;-73
2021/12/20 10:19:46;;;;;;;31.90;14.35;;;5.60;99.90;;;;;;4976781;28;91136;-73
2021/12/20 10:22:29;;;;;;;30.75;14.52;;;5.50;99.90;;;;;;4976637;28;89091;-73
2021/12/20 10:24:58;;;;;;;29.42;12.52;;;5.50;99.90;;;;;;4976421;28;89969;-73
2021/12/20 10:27:29;;;;;;;28.70;12.65;;;5.50;99.90;;;;;;4976502;28;89346;-73
2021/12/20 10:29:54;;;;;;;30.98;13.65;;;5.40;99.90;;;;;;4976601;28;89321;-73
2021/12/20 10:32:43;;;;;;;30.25;13.98;;;5.50;99.90;;;;;;4975979;28;89268;-73
2021/12/20 10:35:30;;;;;;;32.35;14.00;;;5.50;99.90;;;;;;4976745;28;89022;-73
2021/12/20 10:38:24;;;;;;;31.35;12.95;;;5.40;99.90;;;;;;4976542;28;90239;-73
2021/12/20 10:41:04;;;;;;;30.73;11.90;;;5.40;99.90;;;;;;4948397;28;90247;-73
2021/12/20 10:43:35;;;;;;;23.23;10.55;;;5.50;99.90;;;;;;4976108;28;90587;-73
2021/12/20 10:46:28;;;;;;;24.27;11.40;;;5.60;99.90;;;;;;4976371;28;89164;-73
2021/12/20 10:49:05;;;;;;;25.95;10.88;;;5.80;99.90;;;;;;4975788;28;90867;-74
2021/12/20 10:51:37;;;;;;;22.48;9.30;;;5.90;99.90;;;;;;4978384;28;90346;-73
2021/12/20 10:54:10;;;;;;;27.90;10.73;;;5.90;99.90;;;;;;4980425;28;89263;-73
2021/12/20 10:56:39;;;;;;;24.42;10.10;;;5.80;99.90;;;;;;4961840;28;92483;-77
2021/12/20 10:59:10;;;;;;;25.83;10.23;;;5.70;99.90;;;;;;4979375;28;90464;-73
2021/12/20 11:04:26;;;;;;;20.27;8.80;;;5.50;99.90;;;;;;4981782;28;89175;-73
2021/12/20 11:09:34;;;;;;;21.80;10.18;;;5.50;99.90;;;;;;4976520;28;90458;-74
2021/12/20 11:12:05;;;;;;;22.90;10.65;;;5.50;99.90;;;;;;4978983;28;91298;-76
2021/12/20 11:14:35;;;;;;;19.40;8.70;;;5.50;99.90;;;;;;4979007;28;89352;-73
2021/12/20 11:17:03;;;;;;;22.30;9.05;;;5.50;99.90;;;;;;4980191;28;90239;-73
2021/12/20 11:19:34;;;;;;;22.27;9.18;;;5.60;99.90;;;;;;4979549;28;91323;-75
2021/12/20 11:22:05;;;;;;;30.25;15.32;;;5.70;99.90;;;;;;4979689;28;90013;-73
2021/12/20 11:24:51;;;;;;;47.45;26.70;;;5.80;99.90;;;;;;4978968;28;89443;-73
2021/12/20 11:27:22;;;;;;;39.58;16.15;;;6.00;99.90;;;;;;4979420;28;89234;-74
2021/12/20 11:29:50;;;;;;;30.92;15.95;;;6.10;99.90;;;;;;4978975;28;89919;-73
2021/12/20 11:32:17;;;;;;;21.23;9.18;;;6.20;99.90;;;;;;4978599;28;89746;-73
2021/12/20 11:34:43;;;;;;;20.33;7.70;;;6.30;99.90;;;;;;4978647;28;90170;-73
2021/12/20 11:37:13;;;;;;;18.48;9.70;;;6.40;99.90;;;;;;4979154;28;89347;-73
2021/12/20 11:39:39;;;;;;;19.80;8.68;;;6.40;99.90;;;;;;4979568;28;90146;-73
2021/12/20 11:42:07;;;;;;;22.02;9.27;;;6.50;99.90;;;;;;4979177;28;89283;-73
2021/12/20 11:44:36;;;;;;;16.33;7.43;;;6.60;99.90;;;;;;4978897;28;89280;-73
2021/12/20 11:47:04;;;;;;;19.48;7.97;;;6.50;99.90;;;;;;4961707;28;93086;-73
2021/12/20 11:49:31;;;;;;;19.00;10.65;;;6.40;99.90;;;;;;4978580;28;89352;-73
2021/12/20 11:52:03;;;;;;;18.63;7.80;;;6.30;99.90;;;;;;4978685;28;89564;-74
2021/12/20 11:54:34;;;;;;;16.10;6.75;;;6.20;99.90;;;;;;4958527;28;89937;-73
2021/12/20 11:57:00;;;;;;;15.73;6.78;;;6.30;99.90;;;;;;4979134;28;89748;-75
2021/12/20 11:59:51;;;;;;;17.58;6.38;;;6.40;99.90;;;;;;4977738;28;91072;-73
2021/12/20 12:02:41;;;;;;;13.80;6.15;;;6.60;99.90;;;;;;4976151;28;89764;-73
2021/12/20 12:05:11;;;;;;;16.00;6.18;;;6.70;99.90;;;;;;4959482;28;89441;-74
2021/12/20 12:07:38;;;;;;;17.50;6.40;;;6.80;99.90;;;;;;4965658;28;89893;-73
2021/12/20 12:10:16;;;;;;;12.55;6.20;;;6.70;99.90;;;;;;4960846;28;92038;-73
2021/12/20 12:12:45;;;;;;;13.85;6.55;;;6.80;99.90;;;;;;4979238;28;89684;-74
2021/12/20 12:15:14;;;;;;;12.85;6.18;;;6.80;99.90;;;;;;4978444;28;89425;-74
2021/12/20 12:17:56;;;;;;;22.02;8.52;;;7.00;99.90;;;;;;4979080;28;89695;-75
2021/12/20 12:20:53;;;;;;;17.90;7.90;;;7.30;99.90;;;;;;4960866;28;92945;-74
2021/12/20 12:23:24;;;;;;;15.10;6.82;;;7.50;99.90;;;;;;4978506;28;89631;-74
2021/12/20 12:25:55;;;;;;;14.85;6.20;;;7.80;99.90;;;;;;4978157;28;90214;-74
2021/12/20 12:28:23;;;;;;;13.38;6.45;;;8.10;99.90;;;;;;4960673;28;91391;-74
2021/12/20 12:30:58;;;;;;;13.48;6.30;;;8.00;99.90;;;;;;4978179;28;89392;-74
2021/12/20 12:33:33;;;;;;;18.83;7.82;;;7.80;99.90;;;;;;4978630;28;89617;-74
2021/12/20 12:36:05;;;;;;;13.70;6.22;;;7.70;99.90;;;;;;4978582;28;89791;-74
2021/12/20 12:38:34;;;;;;;14.02;5.10;;;7.80;99.90;;;;;;4960629;28;93900;-74
2021/12/20 12:41:06;;;;;;;14.90;3.97;;;7.70;99.90;;;;;;4978007;28;89277;-74
2021/12/20 12:43:52;;;;;;;10.95;4.18;;;7.50;99.90;;;;;;4979025;28;89458;-73
2021/12/20 12:46:36;;;;;;;10.50;3.03;;;7.40;99.90;;;;;;4960819;28;89433;-73
2021/12/20 12:49:20;;;;;;;8.07;3.47;;;7.30;99.90;;;;;;4978153;28;90376;-73
2021/12/20 12:51:49;;;;;;;8.55;2.88;;;7.30;99.90;;;;;;4958241;28;90757;-73
2021/12/20 12:54:32;;;;;;;14.32;3.45;;;7.40;99.90;;;;;;4958423;28;90506;-73
2021/12/20 12:57:10;;;;;;;10.13;2.50;;;7.40;99.90;;;;;;4958995;28;89612;-74
2021/12/20 12:59:58;;;;;;;11.70;3.92;;;7.40;99.90;;;;;;4958620;28;90070;-74
2021/12/20 13:02:29;;;;;;;8.75;2.47;;;7.30;99.90;;;;;;4958475;28;90475;-74
2021/12/20 13:04:59;;;;;;;8.38;2.75;;;7.30;99.90;;;;;;4968100;28;89442;-74
2021/12/20 13:07:37;;;;;;;11.77;2.85;;;7.30;99.90;;;;;;4978182;28;89232;-74
2021/12/20 13:10:06;;;;;;;9.70;2.40;;;7.30;99.90;;;;;;4977861;28;90149;-74
2021/12/20 13:15:22;;;;;;;11.52;3.35;;;7.20;99.90;;;;;;4975784;28;89601;-74
2021/12/20 13:17:54;;;;;;;13.23;3.17;;;7.30;99.90;;;;;;4959618;28;90274;-74
2021/12/20 13:23:00;;;;;;;9.02;2.85;;;7.00;99.90;;;;;;4977537;28;89890;-74
2021/12/20 13:25:42;;;;;;;11.52;3.22;;;6.80;99.90;;;;;;4977711;28;89250;-74
2021/12/20 13:28:13;;;;;;;9.82;2.90;;;6.60;99.90;;;;;;4978000;28;89574;-74
2021/12/20 13:30:41;;;;;;;14.45;4.35;;;6.40;99.90;;;;;;4977529;28;93330;-74
2021/12/20 13:33:07;;;;;;;13.65;4.15;;;6.20;99.90;;;;;;4977368;28;89697;-73
2021/12/20 13:35:32;;;;;;;35.55;19.33;;;6.00;99.90;;;;;;4975712;28;88958;-74
2021/12/20 13:38:16;;;;;;;12.60;3.65;;;5.80;99.90;;;;;;4977575;28;89249;-74
2021/12/20 13:40:45;;;;;;;16.70;4.10;;;5.70;99.90;;;;;;4978084;28;89372;-74
2021/12/20 13:43:11;;;;;;;14.85;5.57;;;5.70;99.90;;;;;;4977291;28;90255;-74
2021/12/20 13:45:37;;;;;;;16.42;5.05;;;5.70;99.90;;;;;;4977952;28;89551;-74
2021/12/20 13:48:07;;;;;;;23.17;12.10;;;5.60;99.90;;;;;;4978222;28;89192;-75
2021/12/20 13:50:33;;;;;;;10.18;3.63;;;5.50;99.90;;;;;;4977244;28;89795;-75
2021/12/20 13:52:59;;;;;;;18.67;5.00;;;5.50;99.90;;;;;;4960035;28;92885;-75
2021/12/20 13:55:25;;;;;;;18.75;8.73;;;5.50;99.90;;;;;;4960480;28;91826;-75
2021/12/20 13:57:50;;;;;;;16.45;4.10;;;5.50;99.90;;;;;;4960794;28;89264;-75
2021/12/20 14:00:16;;;;;;;11.50;3.70;;;5.50;99.90;;;;;;4960859;28;93138;-75
2021/12/20 14:02:45;;;;;;;9.77;3.35;;;5.40;99.90;;;;;;4978526;28;90269;-75
2021/12/20 14:05:27;;;;;;;14.73;6.32;;;5.30;99.90;;;;;;4978463;28;90087;-75
2021/12/20 14:07:59;;;;;;;19.95;8.52;;;5.20;99.90;;;;;;4979179;28;90217;-76
2021/12/20 14:10:29;;;;;;;15.02;4.10;;;5.10;99.90;;;;;;4982340;28;89890;-75
2021/12/20 14:13:01;;;;;;;11.70;3.42;;;5.00;99.90;;;;;;4983564;28;89189;-75
2021/12/20 14:15:42;;;;;;;16.20;4.57;;;4.80;99.90;;;;;;4976958;28;89444;-75
2021/12/20 14:18:08;;;;;;;15.82;4.00;;;4.70;99.90;;;;;;4957033;28;89382;-75
2021/12/20 14:20:50;;;;;;;12.60;3.72;;;4.50;99.90;;;;;;4977202;28;89388;-76
2021/12/20 14:23:48;;;;;;;14.98;4.10;;;4.30;99.90;;;;;;4977412;28;89306;-75
2021/12/20 14:26:19;;;;;;;15.05;4.25;;;4.20;99.90;;;;;;4979188;28;88904;-75
2021/12/20 14:28:50;;;;;;;14.30;3.47;;;4.10;99.90;;;;;;4981072;28;89200;-75
2021/12/20 14:31:30;;;;;;;14.10;3.88;;;4.00;99.90;;;;;;4980456;28;89469;-76
2021/12/20 14:33:57;;;;;;;15.95;3.35;;;3.90;99.90;;;;;;4961890;28;91803;-75
2021/12/20 14:36:25;;;;;;;12.10;3.42;;;3.80;99.90;;;;;;4978360;28;90763;-75
2021/12/20 14:38:55;;;;;;;15.85;3.92;;;3.60;99.90;;;;;;4980609;28;89368;-75
2021/12/20 14:41:30;;;;;;;11.20;3.75;;;3.50;99.90;;;;;;4962368;28;93589;-75
2021/12/20 14:44:02;;;;;;;8.80;3.60;;;3.40;99.90;;;;;;4980161;28;90022;-75
2021/12/20 14:46:40;;;;;;;14.40;3.45;;;3.30;99.90;;;;;;4980448;28;89428;-75
2021/12/20 14:49:22;;;;;;;14.82;3.83;;;3.20;99.90;;;;;;4980582;28;89266;-75
2021/12/20 14:51:49;;;;;;;12.02;4.03;;;3.10;99.90;;;;;;4980176;28;90289;-74
2021/12/20 14:54:17;;;;;;;13.15;3.65;;;2.90;99.90;;;;;;4979760;28;90365;-74
2021/12/20 14:56:57;;;;;;;11.95;3.58;;;2.80;99.90;;;;;;4980032;28;89816;-74
2021/12/20 14:59:27;;;;;;;14.10;3.80;;;2.60;99.90;;;;;;4979722;28;90189;-75
2021/12/20 15:01:54;;;;;;;12.13;3.53;;;2.50;99.90;;;;;;4979974;28;90038;-74
2021/12/20 15:04:20;;;;;;;10.73;3.65;;;2.40;99.90;;;;;;4962101;28;93081;-78
2021/12/20 15:06:53;;;;;;;13.65;4.25;;;2.30;99.90;;;;;;4979275;28;90089;-75
2021/12/20 15:09:22;;;;;;;13.35;4.75;;;2.30;99.90;;;;;;4979808;28;89617;-74
2021/12/20 15:11:48;;;;;;;14.60;5.28;;;2.20;99.90;;;;;;4961976;28;92833;-74
2021/12/20 15:14:14;;;;;;;14.73;5.43;;;2.10;99.90;;;;;;4979647;28;90207;-74
2021/12/20 15:16:39;;;;;;;13.50;4.25;;;2.00;99.90;;;;;;4961694;28;90813;-75
2021/12/20 15:19:05;;;;;;;10.48;4.45;;;1.90;99.90;;;;;;4980031;28;89296;-74
2021/12/20 15:21:32;;;;;;;12.90;4.07;;;1.80;99.90;;;;;;4979339;28;89384;-74
2021/12/20 15:23:58;;;;;;;16.90;4.65;;;1.60;99.90;;;;;;4979020;28;90920;-81
2021/12/20 15:26:24;;;;;;;14.18;3.95;;;1.50;99.90;;;;;;4979861;28;89640;-76
2021/12/20 15:28:49;;;;;;;10.73;4.07;;;1.40;99.90;;;;;;4979913;28;89911;-76
2021/12/20 15:31:16;;;;;;;11.20;4.03;;;1.40;99.90;;;;;;4979339;28;89326;-76
2021/12/20 15:33:45;;;;;;;14.85;6.10;;;1.20;99.90;;;;;;4979375;28;90574;-76
2021/12/20 15:36:10;;;;;;;16.85;6.57;;;1.10;99.90;;;;;;4979722;28;89596;-76
2021/12/20 15:38:36;;;;;;;14.35;5.50;;;1.10;99.90;;;;;;4978847;28;89246;-76
2021/12/20 15:41:02;;;;;;;20.75;5.28;;;1.00;99.90;;;;;;4979565;28;89640;-76
2021/12/20 15:43:28;;;;;;;11.25;4.60;;;0.90;99.90;;;;;;4975201;28;89335;-75
2021/12/20 15:45:54;;;;;;;13.18;4.70;;;0.80;99.90;;;;;;4976527;28;89668;-76
2021/12/20 15:48:22;;;;;;;11.48;4.00;;;0.70;99.90;;;;;;4977995;28;90275;-79
2021/12/20 15:50:49;;;;;;;16.15;4.88;;;0.60;99.90;;;;;;4961521;28;91948;-79
2021/12/20 15:53:16;;;;;;;15.38;3.90;;;0.50;99.90;;;;;;4978454;28;89330;-78
2021/12/20 15:55:45;;;;;;;11.95;4.45;;;0.50;99.90;;;;;;4978265;28;89558;-79
2021/12/20 15:58:11;;;;;;;13.48;4.35;;;0.40;99.90;;;;;;4959803;28;89388;-81
2021/12/20 16:00:38;;;;;;;11.70;4.20;;;0.30;99.90;;;;;;4978193;28;89441;-78
2021/12/20 16:03:04;;;;;;;15.02;4.85;;;0.20;99.90;;;;;;4977753;28;90248;-79
2021/12/20 16:05:30;;;;;;;17.60;5.70;;;0.10;99.90;;;;;;4960432;28;92945;-78
2021/12/20 16:07:56;;;;;;;14.95;5.25;;;0.10;99.90;;;;;;4977933;28;89300;-78
2021/12/20 16:10:23;;;;;;;16.67;6.32;;;0.00;99.90;;;;;;4977821;28;89951;-80
2021/12/20 16:12:48;;;;;;;16.50;6.50;;;-0.10;99.90;;;;;;4977739;28;91235;-81
2021/12/20 16:15:20;;;;;;;19.00;8.77;;;-0.20;99.90;;;;;;4977832;28;91215;-76
2021/12/20 16:17:50;;;;;;;22.65;8.32;;;-0.20;99.90;;;;;;4978292;28;89238;-76
2021/12/20 16:20:17;;;;;;;18.13;8.07;;;-0.30;99.90;;;;;;4975523;28;90666;-77
2021/12/20 16:22:43;;;;;;;18.92;8.65;;;-0.30;99.90;;;;;;4952758;28;92188;-76
2021/12/20 16:25:12;;;;;;;18.67;9.75;;;-0.30;99.90;;;;;;4945429;28;91759;-76
2021/12/20 16:27:38;;;;;;;24.85;11.38;;;-0.30;99.90;;;;;;4959864;28;89308;-77
2021/12/20 16:30:08;;;;;;;19.85;9.35;;;-0.40;99.90;;;;;;4959025;28;92258;-77
2021/12/20 16:32:33;;;;;;;21.13;8.80;;;-0.40;99.90;;;;;;4977545;28;90942;-77
2021/12/20 16:35:00;;;;;;;23.15;9.40;;;-0.40;99.90;;;;;;4978281;28;89122;-76
2021/12/20 16:37:27;;;;;;;23.83;9.50;;;-0.40;99.90;;;;;;4977749;28;90275;-76
2021/12/20 16:39:53;;;;;;;19.77;9.48;;;-0.50;99.90;;;;;;4976712;28;89430;-77
2021/12/20 16:42:18;;;;;;;23.88;9.77;;;-0.50;99.90;;;;;;4977696;28;90340;-76
2021/12/20 16:44:48;;;;;;;20.63;10.77;;;-0.50;99.90;;;;;;4978229;28;89294;-77
2021/12/20 16:47:22;;;;;;;17.15;9.70;;;-0.50;99.90;;;;;;4977882;28;89266;-76
2021/12/20 16:49:50;;;;;;;28.42;10.75;;;-0.50;99.90;;;;;;4978180;28;89209;-77
2021/12/20 16:52:17;;;;;;;21.58;10.82;;;-0.60;99.90;;;;;;4959205;28;93020;-77
2021/12/20 16:54:44;;;;;;;24.67;11.38;;;-0.60;99.90;;;;;;4978045;28;88766;-77
2021/12/20 16:57:09;;;;;;;26.25;10.60;;;-0.70;99.90;;;;;;4977981;28;89273;-77
2021/12/20 16:59:35;;;;;;;22.85;10.52;;;-0.70;99.90;;;;;;4977799;28;89260;-77
2021/12/20 17:02:01;;;;;;;21.63;10.75;;;-0.80;99.90;;;;;;4976570;28;91239;-77
2021/12/20 17:07:00;;;;;;;28.23;14.52;;;-0.80;99.90;;;;;;4977661;28;89505;-76
2021/12/20 17:09:25;;;;;;;30.30;14.88;;;-0.90;99.90;;;;;;4977050;28;89343;-77
2021/12/20 17:11:51;;;;;;;27.45;14.18;;;-0.90;99.90;;;;;;4976640;28;89423;-76
2021/12/20 17:14:18;;;;;;;30.80;13.90;;;-1.00;99.90;;;;;;4976753;28;89836;-77
2021/12/20 17:16:49;;;;;;;28.15;14.68;;;-1.00;99.90;;;;;;4977074;28;89411;-77
2021/12/20 17:19:14;;;;;;;32.83;18.85;;;-1.00;99.90;;;;;;4979861;28;88817;-78
2021/12/20 17:21:40;;;;;;;30.88;17.17;;;-1.10;99.90;;;;;;4978569;28;90005;-78
2021/12/20 17:24:06;;;;;;;32.95;15.95;;;-1.10;99.90;;;;;;4964350;28;92814;-76
2021/12/20 17:26:33;;;;;;;27.77;14.45;;;-1.10;99.90;;;;;;4999691;28;90223;-77
2021/12/20 17:29:00;;;;;;;22.42;11.23;;;-1.20;99.90;;;;;;4997188;28;89130;-77
2021/12/20 17:31:26;;;;;;;23.00;11.02;;;-1.10;99.90;;;;;;4963841;28;92884;-78
2021/12/20 17:33:52;;;;;;;20.27;10.43;;;-1.00;99.90;;;;;;4979664;28;89528;-80
2021/12/20 17:36:18;;;;;;;28.60;10.13;;;-1.10;99.90;;;;;;4981535;28;89292;-78
2021/12/20 17:38:43;;;;;;;20.65;9.63;;;-1.20;99.90;;;;;;4980841;28;89889;-77
2021/12/20 17:41:09;;;;;;;23.75;11.20;;;-1.20;99.90;;;;;;4983217;28;90528;-78
2021/12/20 17:43:34;;;;;;;27.55;11.15;;;-1.30;99.90;;;;;;4964197;28;91721;-78
2021/12/20 17:46:01;;;;;;;23.30;10.88;;;-1.30;99.90;;;;;;4981956;28;89365;-78
2021/12/20 17:48:27;;;;;;;25.88;10.48;;;-1.30;99.90;;;;;;4983503;28;89240;-77
2021/12/20 17:50:53;;;;;;;23.77;10.52;;;-1.30;99.90;;;;;;4982616;28;90490;-78
2021/12/20 17:53:19;;;;;;;26.55;11.43;;;-1.20;99.90;;;;;;4982996;28;91167;-80
2021/12/20 17:55:45;;;;;;;24.83;11.95;;;-1.30;99.90;;;;;;4962888;28;89322;-83
2021/12/20 17:58:11;;;;;;;28.80;12.15;;;-1.30;99.90;;;;;;4968606;28;89144;-77
2021/12/20 18:00:38;;;;;;;24.10;12.05;;;-1.30;99.90;;;;;;4969414;28;90098;-76
2021/12/20 18:03:05;;;;;;;26.38;11.20;;;-1.40;99.90;;;;;;4980100;28;89541;-78